Team 5510 - The Da Vinci Coders (2019)


2019 Robot: The Lurman
2019 Home Championship: FIRST Championship - Houston - FIRST Robotics Competition
2019 Sponsors: Lockheed Martin/Northrop Grumman/Spin Master/Family Industries/Erector by Meccano/Kinetic Lighting&Alexander Hamilton Senior High


This tab displays only official event's that Team 5510 attended in 2019.
Team 5510 had a record of 12-8-1 (W-L-T) at their 2 official events (this includes a Qualification record of 12 - 8 - 1 (W-L-T) and Playoff record of 0 - 0)

Los Angeles Regional

  March 20 to March 23, 2019

Qualification Matches
Rank: 12 of 56
Record: 6 Wins, 2 Losses and 1 Ties - 9 Matches Played (0 Disqualifications)

Match Start Time Red 1 Red 2 Red 3 Blue 1 Blue 2 Blue 3 Red Final Blue Final
Qualification 7   Fri 3/22 - 10:10 AM 1515 597 606 5510 3408 7871 57 23
Qualification 14   Fri 3/22 - 11:02 AM 5802 4123 6000 5510 6904 1452 52 62
Qualification 20   Fri 3/22 - 11:56 AM 4123 5510 330 4276 7230 867 70 49
Qualification 30   Fri 3/22 - 2:28 PM 848 3476 5634 5669 5089 5510 37 49
Qualification 44   Fri 3/22 - 4:17 PM 7455 2496 5510 980 6955 6938 33 15
Qualification 51   Fri 3/22 - 5:08 PM 589 1197 7185 6000 5510 4415 18 66
Qualification 58   Fri 3/22 - 6:07 PM 1197 1515 5510 4763 3952 687 62 62
Qualification 68   Sat 3/23 - 10:15 AM 207 4501 2710 5510 1759 4141 69 24
Qualification 82   Sat 3/23 - 12:07 PM 6515 5510 4 4019 7042 5107 47 29
Playoff Matches

Ventura Regional

  March 27 to March 30, 2019

Qualification Matches
Rank: 24 of 42
Record: 6 Wins, 6 Losses and 0 Ties - 12 Matches Played (0 Disqualifications)

Match Start Time Red 1 Red 2 Red 3 Blue 1 Blue 2 Blue 3 Red Final Blue Final
Qualification 3   Fri 3/29 - 9:13 AM 3303 3473 5510 3328 3863 115 51 76
Qualification 9   Fri 3/29 - 10:11 AM 5137 5510 7323 7327 4711 7326 45 18
Qualification 16   Fri 3/29 - 11:13 AM 5510 7327 5678 3303 580 5857 32 21
Qualification 28 Fri 3/29 - 1:43 PM 5700 3863 5477 580 7326 5510 60 24
Qualification 33 Fri 3/29 - 2:25 PM 7887 114 5857 7324 4711 5510 60 43
Qualification 39   Fri 3/29 - 3:11 PM 4414 599 5136 6553 5510 3863 98 53
Qualification 43   Fri 3/29 - 3:40 PM 6934 7324 4486 5199 4201 5510 47 73
Qualification 52 Fri 3/29 - 4:53 PM 5102 3328 580 5510 5818 6398 30 68
Qualification 63   Sat 3/30 - 9:22 AM 5510 5869 1138 6764 6560 4486 42 64
Qualification 69   Sat 3/30 - 10:10 AM 5510 5107 6560 4470 114 294 48 68
Qualification 77   Sat 3/30 - 11:10 AM 2486 5510 114 6398 6553 5137 86 47
Qualification 82 Sat 3/30 - 11:51 AM 2543 5137 7650 294 5510 3925 61 68
Playoff Matches

Team 5510's 2019 Awards

Loading match videos… please wait a moment

Loading...

Los Angeles Regional

  March 20 to March 23, 2019

Qualification Matches
Rank: 12 of 56
Record: 6 Wins, 2 Losses and 1 Ties - 9 Matches Played (0 Disqualifications)

Match Start Time Red 1 Red 2 Red 3 Blue 1 Blue 2 Blue 3 Red Final Blue Final
Qualification 7   Fri 3/22 - 10:10 AM 1515 597 606 5510 3408 7871 57 23
Qualification 14   Fri 3/22 - 11:02 AM 5802 4123 6000 5510 6904 1452 52 62
Qualification 20   Fri 3/22 - 11:56 AM 4123 5510 330 4276 7230 867 70 49
Qualification 30   Fri 3/22 - 2:28 PM 848 3476 5634 5669 5089 5510 37 49
Qualification 44   Fri 3/22 - 4:17 PM 7455 2496 5510 980 6955 6938 33 15
Qualification 51   Fri 3/22 - 5:08 PM 589 1197 7185 6000 5510 4415 18 66
Qualification 58   Fri 3/22 - 6:07 PM 1197 1515 5510 4763 3952 687 62 62
Qualification 68   Sat 3/23 - 10:15 AM 207 4501 2710 5510 1759 4141 69 24
Qualification 82   Sat 3/23 - 12:07 PM 6515 5510 4 4019 7042 5107 47 29
Playoff Matches

Ventura Regional

  March 27 to March 30, 2019

Qualification Matches
Rank: 24 of 42
Record: 6 Wins, 6 Losses and 0 Ties - 12 Matches Played (0 Disqualifications)

Match Start Time Red 1 Red 2 Red 3 Blue 1 Blue 2 Blue 3 Red Final Blue Final
Qualification 3   Fri 3/29 - 9:13 AM 3303 3473 5510 3328 3863 115 51 76
Qualification 9   Fri 3/29 - 10:11 AM 5137 5510 7323 7327 4711 7326 45 18
Qualification 16   Fri 3/29 - 11:13 AM 5510 7327 5678 3303 580 5857 32 21
Qualification 28 Fri 3/29 - 1:43 PM 5700 3863 5477 580 7326 5510 60 24
Qualification 33 Fri 3/29 - 2:25 PM 7887 114 5857 7324 4711 5510 60 43
Qualification 39   Fri 3/29 - 3:11 PM 4414 599 5136 6553 5510 3863 98 53
Qualification 43   Fri 3/29 - 3:40 PM 6934 7324 4486 5199 4201 5510 47 73
Qualification 52 Fri 3/29 - 4:53 PM 5102 3328 580 5510 5818 6398 30 68
Qualification 63   Sat 3/30 - 9:22 AM 5510 5869 1138 6764 6560 4486 42 64
Qualification 69   Sat 3/30 - 10:10 AM 5510 5107 6560 4470 114 294 48 68
Qualification 77   Sat 3/30 - 11:10 AM 2486 5510 114 6398 6553 5137 86 47
Qualification 82 Sat 3/30 - 11:51 AM 2543 5137 7650 294 5510 3925 61 68
Playoff Matches